createdAt,value
2023-04-12T00:01:11.536Z,7.20
2023-04-12T00:03:39.515Z,7.20
2023-04-12T00:06:07.410Z,7.10
2023-04-12T00:08:35.566Z,7.10
2023-04-12T00:11:03.546Z,7.10
2023-04-12T00:13:30.756Z,7.10
2023-04-12T00:15:58.201Z,7.00
2023-04-12T00:18:26.243Z,7.00
2023-04-12T00:20:53.666Z,7.00
2023-04-12T00:23:21.427Z,6.90
2023-04-12T00:25:48.711Z,6.90
2023-04-12T00:28:16.176Z,6.90
2023-04-12T00:30:44.169Z,6.90
2023-04-12T00:33:11.356Z,6.90
2023-04-12T00:35:38.421Z,6.90
2023-04-12T00:38:10.695Z,6.90
2023-04-12T00:40:45.053Z,6.90
2023-04-12T00:43:15.773Z,6.80
2023-04-12T00:45:43.073Z,6.80
2023-04-12T00:48:12.570Z,6.80
2023-04-12T00:50:41.802Z,6.80
2023-04-12T00:53:11.884Z,6.80
2023-04-12T00:55:45.034Z,6.80
2023-04-12T00:58:12.604Z,6.80
2023-04-12T01:00:39.916Z,6.80
2023-04-12T01:03:08.637Z,6.80
2023-04-12T01:05:43.784Z,6.80
2023-04-12T01:08:43.758Z,6.80
2023-04-12T01:11:20.540Z,6.70
2023-04-12T01:14:08.104Z,6.70
2023-04-12T01:16:44.409Z,6.70
2023-04-12T01:19:31.594Z,6.70
2023-04-12T01:22:19.698Z,6.70
2023-04-12T01:25:16.934Z,6.70
2023-04-12T01:27:50.792Z,6.70
2023-04-12T01:30:20.630Z,6.70
2023-04-12T01:32:52.145Z,6.70
2023-04-12T01:35:26.529Z,6.70
2023-04-12T01:37:54.430Z,6.70
2023-04-12T01:40:22.035Z,6.70
2023-04-12T01:42:49.072Z,6.70
2023-04-12T01:45:16.168Z,6.70
2023-04-12T01:47:43.782Z,6.60
2023-04-12T01:50:13.820Z,6.70
2023-04-12T01:52:46.437Z,6.60
2023-04-12T01:55:16.903Z,6.60
2023-04-12T01:57:45.872Z,6.60
2023-04-12T02:00:14.402Z,6.50
2023-04-12T02:02:42.439Z,6.50
2023-04-12T02:05:10.361Z,6.50
2023-04-12T02:07:37.717Z,6.50
2023-04-12T02:10:05.002Z,6.50
2023-04-12T02:12:32.088Z,6.50
2023-04-12T02:15:00.308Z,6.50
2023-04-12T02:17:27.315Z,6.50
2023-04-12T02:19:54.483Z,6.40
2023-04-12T02:22:21.806Z,6.40
2023-04-12T02:24:48.812Z,6.40
2023-04-12T02:27:18.920Z,6.50
2023-04-12T02:29:46.006Z,6.50
2023-04-12T02:32:13.489Z,6.50
2023-04-12T02:34:40.855Z,6.50
2023-04-12T02:37:17.873Z,6.50
2023-04-12T02:39:45.004Z,6.40
2023-04-12T02:42:12.507Z,6.50
2023-04-12T02:44:41.315Z,6.50
2023-04-12T02:47:12.466Z,6.50
2023-04-12T02:49:42.212Z,6.50
2023-04-12T02:52:11.087Z,6.50
2023-04-12T02:54:46.230Z,6.50
2023-04-12T02:57:16.861Z,6.50
2023-04-12T02:59:46.694Z,6.50
2023-04-12T03:02:23.423Z,6.50
2023-04-12T03:04:53.424Z,6.50
2023-04-12T03:07:26.500Z,6.50
2023-04-12T03:09:54.185Z,6.50
2023-04-12T03:12:24.093Z,6.50
2023-04-12T03:15:10.550Z,6.40
2023-04-12T03:17:38.130Z,6.40
2023-04-12T03:20:10.596Z,6.40
2023-04-12T03:22:42.731Z,6.40
2023-04-12T03:25:12.766Z,6.40
2023-04-12T03:27:45.909Z,6.40
2023-04-12T03:30:16.365Z,6.40
2023-04-12T03:32:44.726Z,6.40
2023-04-12T03:35:12.145Z,6.40
2023-04-12T03:37:43.146Z,6.40
2023-04-12T03:40:11.977Z,6.40
2023-04-12T03:42:42.987Z,6.40
2023-04-12T03:45:15.112Z,6.40
2023-04-12T03:47:46.748Z,6.40
2023-04-12T03:50:15.936Z,6.40
2023-04-12T03:52:48.763Z,6.30
2023-04-12T03:55:18.307Z,6.40
2023-04-12T03:57:48.776Z,6.30
2023-04-12T04:00:16.757Z,6.30
2023-04-12T04:03:03.464Z,6.30
2023-04-12T04:05:34.525Z,6.30
2023-04-12T04:08:02.778Z,6.30
2023-04-12T04:10:37.637Z,6.30
2023-04-12T04:13:04.742Z,6.30
2023-04-12T04:15:32.774Z,6.30
2023-04-12T04:18:01.529Z,6.30
2023-04-12T04:20:29.768Z,6.30
2023-04-12T04:22:56.774Z,6.30
2023-04-12T04:25:29.968Z,6.30
2023-04-12T04:28:03.564Z,6.30
2023-04-12T04:30:34.246Z,6.30
2023-04-12T04:33:03.137Z,6.30
2023-04-12T04:35:31.702Z,6.30
2023-04-12T04:38:20.215Z,6.30
2023-04-12T04:40:53.420Z,6.30
2023-04-12T04:43:25.454Z,6.20
2023-04-12T04:46:01.114Z,6.20
2023-04-12T04:48:30.064Z,6.20
2023-04-12T04:50:57.549Z,6.20
2023-04-12T04:53:24.828Z,6.20
2023-04-12T04:55:58.463Z,6.20
2023-04-12T04:58:28.121Z,6.20
2023-04-12T05:00:59.824Z,6.30
2023-04-12T05:03:30.843Z,6.20
2023-04-12T05:05:59.581Z,6.20
2023-04-12T05:08:27.787Z,6.20
2023-04-12T05:10:57.075Z,6.20
2023-04-12T05:13:28.789Z,6.20
2023-04-12T05:15:56.178Z,6.30
2023-04-12T05:18:23.247Z,6.30
2023-04-12T05:20:50.991Z,6.30
2023-04-12T05:23:18.307Z,6.30
2023-04-12T05:25:50.151Z,6.30
2023-04-12T05:28:19.040Z,6.30
2023-04-12T05:30:46.621Z,6.30
2023-04-12T05:33:18.526Z,6.30
2023-04-12T05:35:47.251Z,6.30
2023-04-12T05:38:14.363Z,6.40
2023-04-12T05:40:44.215Z,6.40
2023-04-12T05:43:14.135Z,6.40
2023-04-12T05:45:41.993Z,6.40
2023-04-12T05:48:10.299Z,6.40
2023-04-12T05:50:37.878Z,6.40
2023-04-12T05:53:05.052Z,6.40
2023-04-12T05:55:35.320Z,6.40
2023-04-12T05:58:04.101Z,6.40
2023-04-12T06:00:31.994Z,6.40
2023-04-12T06:02:59.185Z,6.40
2023-04-12T06:05:26.648Z,6.40
2023-04-12T06:07:53.959Z,6.50
2023-04-12T06:10:21.320Z,6.50
2023-04-12T06:12:52.000Z,6.50
2023-04-12T06:15:21.072Z,6.50
2023-04-12T06:17:53.533Z,6.60
2023-04-12T06:20:20.976Z,6.60
2023-04-12T06:22:48.567Z,6.70
2023-04-12T06:25:18.294Z,6.70
2023-04-12T06:27:47.712Z,6.60
2023-04-12T06:30:17.007Z,6.60
2023-04-12T06:32:44.483Z,6.60
2023-04-12T06:35:11.885Z,6.70
2023-04-12T06:37:39.679Z,6.70
2023-04-12T06:40:07.725Z,6.80
2023-04-12T06:42:34.946Z,6.80
2023-04-12T06:45:02.293Z,6.90
2023-04-12T06:47:30.954Z,6.80
2023-04-12T06:49:58.399Z,6.90
2023-04-12T06:52:26.781Z,6.90
2023-04-12T06:54:56.150Z,6.90
2023-04-12T06:57:23.692Z,7.00
2023-04-12T06:59:51.141Z,7.00
2023-04-12T07:02:18.616Z,7.10
2023-04-12T07:04:45.761Z,7.30
2023-04-12T07:07:13.549Z,7.60
2023-04-12T07:09:40.918Z,7.80
2023-04-12T07:12:08.166Z,7.90
2023-04-12T07:14:35.406Z,7.90
2023-04-12T07:17:02.395Z,7.80
2023-04-12T07:19:31.441Z,7.80
2023-04-12T07:21:58.952Z,7.60
2023-04-12T07:24:26.219Z,7.50
2023-04-12T07:26:56.973Z,7.40
2023-04-12T07:29:24.172Z,7.50
2023-04-12T07:31:51.236Z,7.40
2023-04-12T07:34:18.375Z,7.40
2023-04-12T07:36:45.607Z,7.50
2023-04-12T07:39:12.702Z,7.50
2023-04-12T07:41:40.900Z,7.60
2023-04-12T07:44:08.283Z,7.60
2023-04-12T07:46:35.506Z,7.70
2023-04-12T07:49:02.557Z,7.60
2023-04-12T07:51:29.638Z,7.50
2023-04-12T07:53:56.922Z,7.40
2023-04-12T07:56:24.052Z,7.30
2023-04-12T07:58:51.229Z,7.40
2023-04-12T08:01:18.367Z,7.50
2023-04-12T08:03:45.793Z,7.60
2023-04-12T08:06:13.155Z,7.80
2023-04-12T08:08:40.657Z,7.70
2023-04-12T08:11:07.746Z,8.60
2023-04-12T08:13:35.657Z,8.80
2023-04-12T08:16:03.230Z,8.70
2023-04-12T08:18:30.368Z,8.50
2023-04-12T08:20:58.337Z,8.50
2023-04-12T08:23:26.681Z,8.50
2023-04-12T08:26:02.862Z,8.40
2023-04-12T08:28:31.356Z,8.50
2023-04-12T08:30:59.466Z,8.60
2023-04-12T08:33:27.129Z,8.70
2023-04-12T08:35:55.283Z,9.00
2023-04-12T08:38:30.669Z,9.20
2023-04-12T08:41:05.670Z,9.40
2023-04-12T08:43:34.565Z,9.50
2023-04-12T08:46:01.874Z,10.40
2023-04-12T08:48:29.724Z,11.20
2023-04-12T08:50:57.935Z,11.40
2023-04-12T08:53:25.077Z,11.20
2023-04-12T08:55:52.391Z,11.10
2023-04-12T08:58:20.908Z,10.90
2023-04-12T09:00:48.312Z,11.20
2023-04-12T09:03:15.858Z,11.90
2023-04-12T09:05:43.287Z,11.80
2023-04-12T09:08:10.680Z,11.30
2023-04-12T09:10:38.569Z,10.90
2023-04-12T09:13:06.632Z,11.40
2023-04-12T09:15:34.756Z,12.00
2023-04-12T09:18:07.729Z,12.10
2023-04-12T09:20:35.755Z,11.40
2023-04-12T09:23:21.038Z,11.60
2023-04-12T09:25:51.871Z,12.50
2023-04-12T09:28:30.007Z,12.60
2023-04-12T09:30:59.321Z,12.70
2023-04-12T09:33:39.735Z,12.90
2023-04-12T09:36:14.420Z,12.60
2023-04-12T09:38:57.875Z,12.40
2023-04-12T09:41:30.662Z,12.50
2023-04-12T09:44:03.964Z,12.70
2023-04-12T09:46:31.336Z,12.80
2023-04-12T09:48:59.288Z,13.00
2023-04-12T09:51:29.199Z,13.00
2023-04-12T09:53:59.847Z,12.70
2023-04-12T09:56:38.053Z,12.50
2023-04-12T09:59:07.117Z,11.80
2023-04-12T10:01:40.380Z,11.50
2023-04-12T10:04:08.918Z,11.70
2023-04-12T10:06:41.599Z,11.60
2023-04-12T10:09:09.045Z,11.30
2023-04-12T10:11:37.612Z,11.00
2023-04-12T10:14:06.128Z,10.80
2023-04-12T10:16:35.207Z,11.00
2023-04-12T10:19:03.995Z,11.10
2023-04-12T10:21:31.615Z,11.10
2023-04-12T10:23:58.986Z,10.90
2023-04-12T10:26:26.971Z,11.10
2023-04-12T10:29:22.760Z,11.10
2023-04-12T10:31:50.561Z,10.90
2023-04-12T10:34:17.759Z,10.70
2023-04-12T10:36:59.074Z,10.70
2023-04-12T10:39:55.766Z,10.70
2023-04-12T10:42:28.013Z,10.70
2023-04-12T10:45:24.887Z,10.70
2023-04-12T10:47:57.146Z,10.80
2023-04-12T10:50:26.773Z,10.80
2023-04-12T10:53:20.836Z,10.90
2023-04-12T10:55:48.057Z,11.00
2023-04-12T10:58:54.972Z,11.10
2023-04-12T11:01:23.279Z,11.10
2023-04-12T11:04:18.975Z,11.10
2023-04-12T11:07:11.301Z,11.20
2023-04-12T11:10:20.160Z,11.20
2023-04-12T11:12:52.661Z,11.40
2023-04-12T11:15:20.398Z,11.30
2023-04-12T11:17:57.337Z,11.40
2023-04-12T11:20:27.896Z,11.40
2023-04-12T11:22:55.414Z,11.40
2023-04-12T11:25:25.457Z,11.30
2023-04-12T11:27:54.827Z,11.30
2023-04-12T11:30:25.709Z,11.30
2023-04-12T11:32:52.841Z,11.40
2023-04-12T11:35:24.471Z,11.40
2023-04-12T11:37:51.721Z,11.50
2023-04-12T11:40:18.861Z,11.50
2023-04-12T11:42:47.176Z,11.60
2023-04-12T11:45:20.162Z,11.50
2023-04-12T11:47:47.331Z,11.40
2023-04-12T11:50:29.317Z,11.50
2023-04-12T11:53:08.979Z,11.60
2023-04-12T11:55:36.587Z,11.60
2023-04-12T11:58:03.833Z,11.80
2023-04-12T12:00:31.467Z,11.90
2023-04-12T12:03:07.675Z,11.80
2023-04-12T12:05:41.152Z,11.80
2023-04-12T12:08:09.250Z,11.90
2023-04-12T12:10:51.978Z,11.80
2023-04-12T12:13:22.878Z,12.00
2023-04-12T12:15:52.886Z,11.90
2023-04-12T12:18:25.052Z,12.00
2023-04-12T12:20:52.988Z,11.90
2023-04-12T12:23:32.927Z,11.90
2023-04-12T12:26:17.063Z,12.00
2023-04-12T12:28:53.685Z,11.70
2023-04-12T12:31:31.378Z,11.70
2023-04-12T12:34:01.099Z,11.80
2023-04-12T12:36:32.974Z,12.20
2023-04-12T12:39:07.118Z,12.50
2023-04-12T12:41:34.978Z,12.40
2023-04-12T12:44:02.349Z,12.60
2023-04-12T12:46:44.715Z,12.80
2023-04-12T12:49:17.489Z,12.60
2023-04-12T12:51:44.786Z,12.60
2023-04-12T12:54:12.301Z,12.20
2023-04-12T12:56:39.501Z,12.10
2023-04-12T12:59:06.765Z,12.40
2023-04-12T13:01:34.016Z,12.50
2023-04-12T13:04:01.550Z,12.60
2023-04-12T13:06:29.181Z,12.60
2023-04-12T13:08:56.613Z,12.70
2023-04-12T13:11:23.890Z,12.70
2023-04-12T13:13:51.005Z,12.70
2023-04-12T13:16:18.200Z,12.70
2023-04-12T13:18:45.782Z,12.90
2023-04-12T13:21:12.833Z,12.70
2023-04-12T13:23:40.125Z,12.90
2023-04-12T13:26:07.477Z,12.90
2023-04-12T13:28:34.816Z,12.60
2023-04-12T13:31:02.029Z,12.60
2023-04-12T13:33:29.218Z,12.50
2023-04-12T13:35:56.395Z,12.20
2023-04-12T13:38:23.552Z,12.10
2023-04-12T13:40:50.656Z,12.30
2023-04-12T13:43:17.899Z,12.40
2023-04-12T13:45:45.121Z,12.30
2023-04-12T13:48:12.196Z,12.50
2023-04-12T13:50:39.263Z,12.60
2023-04-12T13:53:07.141Z,12.50
2023-04-12T13:55:34.156Z,12.30
2023-04-12T13:58:01.423Z,12.40
2023-04-12T14:00:28.540Z,12.60
2023-04-12T14:02:56.751Z,12.60
2023-04-12T14:05:23.906Z,12.70
2023-04-12T14:07:52.593Z,12.70
2023-04-12T14:10:19.703Z,12.60
2023-04-12T14:12:46.993Z,12.40
2023-04-12T14:15:14.101Z,12.20
2023-04-12T14:17:41.359Z,12.10
2023-04-12T14:20:12.836Z,12.20
2023-04-12T14:22:39.938Z,12.30
2023-04-12T14:25:08.120Z,12.30
2023-04-12T14:27:35.872Z,12.20
2023-04-12T14:30:03.287Z,12.10
2023-04-12T14:32:30.581Z,12.30
2023-04-12T14:34:57.762Z,12.30
2023-04-12T14:37:24.974Z,12.40
2023-04-12T14:39:54.417Z,12.50
2023-04-12T14:42:21.608Z,12.40
2023-04-12T14:44:48.729Z,12.40
2023-04-12T14:47:16.036Z,12.40
2023-04-12T14:49:43.089Z,12.30
2023-04-12T14:52:10.141Z,12.40
2023-04-12T14:54:37.458Z,12.50
2023-04-12T14:57:04.458Z,12.70
2023-04-12T14:59:32.186Z,12.70
2023-04-12T15:02:00.024Z,12.80
2023-04-12T15:04:27.200Z,12.90
2023-04-12T15:06:54.373Z,12.80
2023-04-12T15:09:21.461Z,12.60
2023-04-12T15:11:55.047Z,12.50
2023-04-12T15:14:23.308Z,12.60
2023-04-12T15:16:50.468Z,12.40
2023-04-12T15:19:22.456Z,12.40
2023-04-12T15:21:52.374Z,12.40
2023-04-12T15:24:19.893Z,12.30
2023-04-12T15:26:52.548Z,12.30
2023-04-12T15:29:21.339Z,12.20
2023-04-12T15:31:48.539Z,12.10
2023-04-12T15:34:15.723Z,11.90
2023-04-12T15:36:46.054Z,11.80
2023-04-12T15:39:15.093Z,11.80
2023-04-12T15:41:43.503Z,11.80
2023-04-12T15:44:14.548Z,11.70
2023-04-12T15:46:42.556Z,11.60
2023-04-12T15:49:10.972Z,11.60
2023-04-12T15:51:38.403Z,11.60
2023-04-12T15:54:06.316Z,11.60
2023-04-12T15:56:34.615Z,11.60
2023-04-12T15:59:02.072Z,11.50
2023-04-12T16:01:29.224Z,11.40
2023-04-12T16:03:56.608Z,11.40
2023-04-12T16:06:25.323Z,11.40
2023-04-12T16:08:54.590Z,11.40
2023-04-12T16:11:23.966Z,11.40
2023-04-12T16:13:51.910Z,11.30
2023-04-12T16:16:23.503Z,11.30
2023-04-12T16:18:51.673Z,11.30
2023-04-12T16:21:21.173Z,11.20
2023-04-12T16:23:50.374Z,11.20
2023-04-12T16:26:22.742Z,11.20
2023-04-12T16:28:53.484Z,11.10
2023-04-12T16:31:21.338Z,11.20
2023-04-12T16:33:49.642Z,11.20
2023-04-12T16:36:16.925Z,11.20
2023-04-12T16:38:45.615Z,11.10
2023-04-12T16:41:13.120Z,11.10
2023-04-12T16:43:41.503Z,11.10
2023-04-12T16:46:10.938Z,11.10
2023-04-12T16:48:43.983Z,11.00
2023-04-12T16:51:11.279Z,11.00
2023-04-12T16:53:38.279Z,10.90
2023-04-12T16:56:05.853Z,10.90
2023-04-12T16:58:36.217Z,10.80
2023-04-12T17:01:03.583Z,10.80
2023-04-12T17:03:30.874Z,10.70
2023-04-12T17:05:58.319Z,10.70
2023-04-12T17:08:25.511Z,10.60
2023-04-12T17:10:52.602Z,10.60
2023-04-12T17:13:20.500Z,10.50
2023-04-12T17:15:50.487Z,10.50
2023-04-12T17:18:17.853Z,10.40
2023-04-12T17:20:45.436Z,10.30
2023-04-12T17:23:13.618Z,10.20
2023-04-12T17:25:41.848Z,10.20
2023-04-12T17:28:09.530Z,10.10
2023-04-12T17:30:37.085Z,10.00
2023-04-12T17:33:04.371Z,9.90
2023-04-12T17:35:31.446Z,9.90
2023-04-12T17:37:58.976Z,9.80
2023-04-12T17:40:26.244Z,9.70
2023-04-12T17:42:53.304Z,9.60
2023-04-12T17:45:21.994Z,9.60
2023-04-12T17:47:49.597Z,9.60
2023-04-12T17:50:17.051Z,9.50
2023-04-12T17:52:44.978Z,9.40
2023-04-12T17:55:13.001Z,9.40
2023-04-12T17:57:40.318Z,9.30
2023-04-12T18:00:14.229Z,9.30
2023-04-12T18:02:43.558Z,9.30
2023-04-12T18:05:11.328Z,9.20
2023-04-12T18:07:40.136Z,9.20
2023-04-12T18:10:12.877Z,9.10
2023-04-12T18:12:40.975Z,9.10
2023-04-12T18:15:08.723Z,9.00
2023-04-12T18:17:36.046Z,8.90
2023-04-12T18:20:05.616Z,8.90
2023-04-12T18:22:32.671Z,8.80
2023-04-12T18:25:00.982Z,8.80
2023-04-12T18:27:28.280Z,8.80
2023-04-12T18:29:56.655Z,8.70
2023-04-12T18:32:23.684Z,8.70
2023-04-12T18:34:51.181Z,8.70
2023-04-12T18:37:18.971Z,8.70
2023-04-12T18:39:46.649Z,8.60
2023-04-12T18:42:13.713Z,8.60
2023-04-12T18:44:42.183Z,8.50
2023-04-12T18:47:09.525Z,8.50
2023-04-12T18:49:36.720Z,8.40
2023-04-12T18:52:03.996Z,8.50
2023-04-12T18:54:31.350Z,8.40
2023-04-12T18:57:01.158Z,8.40
2023-04-12T18:59:28.312Z,8.40
2023-04-12T19:01:55.672Z,8.40
2023-04-12T19:04:22.871Z,8.40
2023-04-12T19:06:49.965Z,8.30
2023-04-12T19:09:17.094Z,8.30
2023-04-12T19:11:44.425Z,8.30
2023-04-12T19:14:11.656Z,8.30
2023-04-12T19:16:38.829Z,8.20
2023-04-12T19:19:06.141Z,8.20
2023-04-12T19:21:34.049Z,8.20
2023-04-12T19:24:01.360Z,8.10
2023-04-12T19:26:30.328Z,8.10
2023-04-12T19:28:58.952Z,8.00
2023-04-12T19:31:26.582Z,8.00
2023-04-12T19:33:57.585Z,7.90
2023-04-12T19:36:25.023Z,7.90
2023-04-12T19:38:52.396Z,7.90
2023-04-12T19:41:20.587Z,7.90
2023-04-12T19:43:48.022Z,7.80
2023-04-12T19:46:15.431Z,7.80
2023-04-12T19:48:42.927Z,7.80
2023-04-12T19:51:10.389Z,7.80
2023-04-12T19:53:37.446Z,7.70
2023-04-12T19:56:04.800Z,7.70
2023-04-12T19:58:32.337Z,7.70
2023-04-12T20:01:02.298Z,7.70
2023-04-12T20:03:30.323Z,7.70
2023-04-12T20:06:03.894Z,7.60
2023-04-12T20:08:31.825Z,7.60
2023-04-12T20:10:59.202Z,7.60
2023-04-12T20:13:26.269Z,7.50
2023-04-12T20:15:54.482Z,7.50
2023-04-12T20:18:21.881Z,7.50
2023-04-12T20:20:49.673Z,7.50
2023-04-12T20:23:17.207Z,7.50
2023-04-12T20:25:48.947Z,7.50
2023-04-12T20:28:16.262Z,7.50
2023-04-12T20:30:43.528Z,7.50
2023-04-12T20:33:10.794Z,7.40
2023-04-12T20:35:38.211Z,7.40
2023-04-12T20:38:05.801Z,7.40
2023-04-12T20:40:33.017Z,7.40
2023-04-12T20:43:00.331Z,7.30
2023-04-12T20:45:27.391Z,7.30
2023-04-12T20:47:54.719Z,7.30
2023-04-12T20:50:23.057Z,7.20
2023-04-12T20:52:52.421Z,7.30
2023-04-12T20:55:20.064Z,7.20
2023-04-12T20:57:47.176Z,7.20
2023-04-12T21:00:18.265Z,7.20
2023-04-12T21:02:46.537Z,7.10
2023-04-12T21:05:17.700Z,7.10
2023-04-12T21:07:46.912Z,7.00
2023-04-12T21:10:15.163Z,7.00
2023-04-12T21:12:45.115Z,7.00
2023-04-12T21:15:13.054Z,7.00
2023-04-12T21:17:40.901Z,6.90
2023-04-12T21:20:09.705Z,6.90
2023-04-12T21:22:36.926Z,6.90
2023-04-12T21:25:05.040Z,6.80
2023-04-12T21:27:32.264Z,6.80
2023-04-12T21:29:59.331Z,6.70
2023-04-12T21:32:26.534Z,6.70
2023-04-12T21:34:53.740Z,6.60
2023-04-12T21:37:22.191Z,6.60
2023-04-12T21:39:49.367Z,6.50
2023-04-12T21:42:16.382Z,6.50
2023-04-12T21:44:43.434Z,6.40
2023-04-12T21:47:10.527Z,6.40
2023-04-12T21:49:37.829Z,6.40
2023-04-12T21:52:04.906Z,6.30
2023-04-12T21:54:35.164Z,6.20
2023-04-12T21:57:03.204Z,6.20
2023-04-12T21:59:30.261Z,6.20
2023-04-12T22:01:57.498Z,6.10
2023-04-12T22:04:24.589Z,6.00
2023-04-12T22:06:52.691Z,6.00
2023-04-12T22:09:20.370Z,6.00
2023-04-12T22:11:49.156Z,6.00
2023-04-12T22:14:16.356Z,6.00
2023-04-12T22:16:43.401Z,5.90
2023-04-12T22:19:10.854Z,5.90
2023-04-12T22:21:40.208Z,5.90
2023-04-12T22:24:08.341Z,5.80
2023-04-12T22:26:35.536Z,5.90
2023-04-12T22:29:03.166Z,5.80
2023-04-12T22:31:30.587Z,5.80
2023-04-12T22:33:58.255Z,5.80
2023-04-12T22:36:29.288Z,5.80
2023-04-12T22:38:56.955Z,5.80
2023-04-12T22:41:28.498Z,5.80
2023-04-12T22:44:01.517Z,5.70
2023-04-12T22:46:32.439Z,5.70
2023-04-12T22:49:03.427Z,5.80
2023-04-12T22:51:31.694Z,5.70
2023-04-12T22:53:59.357Z,5.70
2023-04-12T22:56:29.342Z,5.60
2023-04-12T22:58:56.362Z,5.60
2023-04-12T23:01:23.491Z,5.50
2023-04-12T23:03:50.793Z,5.50
2023-04-12T23:06:19.753Z,5.50
2023-04-12T23:08:46.911Z,5.50
2023-04-12T23:11:14.497Z,5.40
2023-04-12T23:13:41.615Z,5.40
2023-04-12T23:16:09.018Z,5.40
2023-04-12T23:18:36.221Z,5.40
2023-04-12T23:21:03.250Z,5.40
2023-04-12T23:23:30.571Z,5.30
2023-04-12T23:25:57.572Z,5.30
2023-04-12T23:28:26.694Z,5.30
2023-04-12T23:30:53.968Z,5.20
2023-04-12T23:33:21.874Z,5.20
2023-04-12T23:35:56.272Z,5.20
2023-04-12T23:38:26.108Z,5.10
2023-04-12T23:40:56.479Z,5.10
2023-04-12T23:43:24.817Z,5.00
2023-04-12T23:45:52.727Z,5.00
2023-04-12T23:48:19.775Z,4.90
2023-04-12T23:50:46.940Z,4.90
2023-04-12T23:53:21.609Z,4.90
2023-04-12T23:55:51.156Z,4.80
2023-04-12T23:58:19.499Z,4.80
